sensor_id;sensor_type;location;lat;lon;timestamp;temperature;humidity
46438;DHT22;32137;48.728;9.142;2023-04-25T00:00:41;8.40;99.90
46438;DHT22;32137;48.728;9.142;2023-04-25T00:03:06;8.50;99.90
46438;DHT22;32137;48.728;9.142;2023-04-25T00:05:34;8.50;99.90
46438;DHT22;32137;48.728;9.142;2023-04-25T00:07:59;8.40;99.90
46438;DHT22;32137;48.728;9.142;2023-04-25T00:10:25;8.40;99.90
46438;DHT22;32137;48.728;9.142;2023-04-25T00:12:50;8.40;99.90
46438;DHT22;32137;48.728;9.142;2023-04-25T00:15:16;8.40;99.90
46438;DHT22;32137;48.728;9.142;2023-04-25T00:17:42;8.50;99.90
46438;DHT22;32137;48.728;9.142;2023-04-25T00:20:08;8.50;99.90
46438;DHT22;32137;48.728;9.142;2023-04-25T00:22:34;8.40;99.90
46438;DHT22;32137;48.728;9.142;2023-04-25T00:25:02;8.60;99.90
46438;DHT22;32137;48.728;9.142;2023-04-25T00:27:28;8.50;99.90
46438;DHT22;32137;48.728;9.142;2023-04-25T00:29:54;8.40;99.90
46438;DHT22;32137;48.728;9.142;2023-04-25T00:32:19;8.50;99.90
46438;DHT22;32137;48.728;9.142;2023-04-25T00:34:45;8.30;99.90
46438;DHT22;32137;48.728;9.142;2023-04-25T00:37:10;8.50;99.90
46438;DHT22;32137;48.728;9.142;2023-04-25T00:39:36;8.30;99.90
46438;DHT22;32137;48.728;9.142;2023-04-25T00:42:02;8.40;99.90
46438;DHT22;32137;48.728;9.142;2023-04-25T00:44:28;8.40;99.90
46438;DHT22;32137;48.728;9.142;2023-04-25T00:46:54;8.30;99.90
46438;DHT22;32137;48.728;9.142;2023-04-25T00:49:20;8.30;99.90
46438;DHT22;32137;48.728;9.142;2023-04-25T00:51:45;8.50;99.90
46438;DHT22;32137;48.728;9.142;2023-04-25T00:54:13;8.30;99.90
46438;DHT22;32137;48.728;9.142;2023-04-25T00:56:39;8.30;99.90
46438;DHT22;32137;48.728;9.142;2023-04-25T00:59:05;8.30;99.90
46438;DHT22;32137;48.728;9.142;2023-04-25T01:01:30;8.30;99.90
46438;DHT22;32137;48.728;9.142;2023-04-25T01:03:56;8.20;99.90
46438;DHT22;32137;48.728;9.142;2023-04-25T01:06:23;8.20;99.90
46438;DHT22;32137;48.728;9.142;2023-04-25T01:08:49;8.40;99.90
46438;DHT22;32137;48.728;9.142;2023-04-25T01:11:14;8.30;99.90
46438;DHT22;32137;48.728;9.142;2023-04-25T01:13:40;8.40;99.90
46438;DHT22;32137;48.728;9.142;2023-04-25T01:16:05;8.40;99.90
46438;DHT22;32137;48.728;9.142;2023-04-25T01:18:31;8.40;99.90
46438;DHT22;32137;48.728;9.142;2023-04-25T01:23:23;8.30;99.90
46438;DHT22;32137;48.728;9.142;2023-04-25T01:25:48;8.40;99.90
46438;DHT22;32137;48.728;9.142;2023-04-25T01:28:14;8.40;99.90
46438;DHT22;32137;48.728;9.142;2023-04-25T01:30:40;8.40;99.90
46438;DHT22;32137;48.728;9.142;2023-04-25T01:33:06;8.30;99.90
46438;DHT22;32137;48.728;9.142;2023-04-25T01:35:32;8.20;99.90
46438;DHT22;32137;48.728;9.142;2023-04-25T01:37:58;8.40;99.90
46438;DHT22;32137;48.728;9.142;2023-04-25T01:40:23;8.40;99.90
46438;DHT22;32137;48.728;9.142;2023-04-25T01:42:49;8.30;99.90
46438;DHT22;32137;48.728;9.142;2023-04-25T01:45:15;8.20;99.90
46438;DHT22;32137;48.728;9.142;2023-04-25T01:47:41;8.20;99.90
46438;DHT22;32137;48.728;9.142;2023-04-25T01:50:09;8.20;99.90
46438;DHT22;32137;48.728;9.142;2023-04-25T01:52:34;8.10;99.90
46438;DHT22;32137;48.728;9.142;2023-04-25T01:55:01;8.20;99.90
46438;DHT22;32137;48.728;9.142;2023-04-25T01:57:26;8.10;99.90
46438;DHT22;32137;48.728;9.142;2023-04-25T01:59:53;8.10;99.90
46438;DHT22;32137;48.728;9.142;2023-04-25T02:02:20;7.90;99.90
46438;DHT22;32137;48.728;9.142;2023-04-25T02:04:46;8.00;99.90
46438;DHT22;32137;48.728;9.142;2023-04-25T02:07:11;8.00;99.90
46438;DHT22;32137;48.728;9.142;2023-04-25T02:09:37;8.00;99.90
46438;DHT22;32137;48.728;9.142;2023-04-25T02:12:02;8.00;99.90
46438;DHT22;32137;48.728;9.142;2023-04-25T02:14:28;8.00;99.90
46438;DHT22;32137;48.728;9.142;2023-04-25T02:16:54;8.00;99.90
46438;DHT22;32137;48.728;9.142;2023-04-25T02:19:19;7.90;99.90
46438;DHT22;32137;48.728;9.142;2023-04-25T02:21:44;8.00;99.90
46438;DHT22;32137;48.728;9.142;2023-04-25T02:24:10;7.90;99.90
46438;DHT22;32137;48.728;9.142;2023-04-25T02:26:36;8.00;99.90
46438;DHT22;32137;48.728;9.142;2023-04-25T02:29:01;7.90;99.90
46438;DHT22;32137;48.728;9.142;2023-04-25T02:31:27;8.00;99.90
46438;DHT22;32137;48.728;9.142;2023-04-25T02:33:52;8.00;99.90
46438;DHT22;32137;48.728;9.142;2023-04-25T02:36:18;7.90;99.90
46438;DHT22;32137;48.728;9.142;2023-04-25T02:38:43;7.90;99.90
46438;DHT22;32137;48.728;9.142;2023-04-25T02:41:09;7.80;99.90
46438;DHT22;32137;48.728;9.142;2023-04-25T02:43:34;7.80;99.90
46438;DHT22;32137;48.728;9.142;2023-04-25T02:46:00;7.90;99.90
46438;DHT22;32137;48.728;9.142;2023-04-25T02:48:25;7.80;99.90
46438;DHT22;32137;48.728;9.142;2023-04-25T02:50:51;7.90;99.90
46438;DHT22;32137;48.728;9.142;2023-04-25T02:53:16;7.80;99.90
46438;DHT22;32137;48.728;9.142;2023-04-25T02:55:42;7.90;99.90
46438;DHT22;32137;48.728;9.142;2023-04-25T02:58:07;7.80;99.90
46438;DHT22;32137;48.728;9.142;2023-04-25T03:00:33;7.80;99.90
46438;DHT22;32137;48.728;9.142;2023-04-25T03:02:58;7.70;99.90
46438;DHT22;32137;48.728;9.142;2023-04-25T03:05:24;7.80;99.90
46438;DHT22;32137;48.728;9.142;2023-04-25T03:07:49;7.70;99.90
46438;DHT22;32137;48.728;9.142;2023-04-25T03:10:15;7.80;99.90
46438;DHT22;32137;48.728;9.142;2023-04-25T03:12:40;7.70;99.90
46438;DHT22;32137;48.728;9.142;2023-04-25T03:15:06;7.60;99.90
46438;DHT22;32137;48.728;9.142;2023-04-25T03:17:31;7.50;99.90
46438;DHT22;32137;48.728;9.142;2023-04-25T03:19:57;7.60;99.90
46438;DHT22;32137;48.728;9.142;2023-04-25T03:22:22;7.40;99.90
46438;DHT22;32137;48.728;9.142;2023-04-25T03:24:49;7.60;99.90
46438;DHT22;32137;48.728;9.142;2023-04-25T03:27:15;7.60;99.90
46438;DHT22;32137;48.728;9.142;2023-04-25T03:29:40;7.60;99.90
46438;DHT22;32137;48.728;9.142;2023-04-25T03:32:06;7.60;99.90
46438;DHT22;32137;48.728;9.142;2023-04-25T03:34:31;7.70;99.90
46438;DHT22;32137;48.728;9.142;2023-04-25T03:36:57;7.70;99.90
46438;DHT22;32137;48.728;9.142;2023-04-25T03:39:22;7.60;99.90
46438;DHT22;32137;48.728;9.142;2023-04-25T03:41:48;7.60;99.90
46438;DHT22;32137;48.728;9.142;2023-04-25T03:44:13;7.60;99.90
46438;DHT22;32137;48.728;9.142;2023-04-25T03:46:39;7.60;99.90
46438;DHT22;32137;48.728;9.142;2023-04-25T03:49:04;7.60;99.90
46438;DHT22;32137;48.728;9.142;2023-04-25T03:51:30;7.60;99.90
46438;DHT22;32137;48.728;9.142;2023-04-25T03:53:56;7.50;99.90
46438;DHT22;32137;48.728;9.142;2023-04-25T03:56:21;7.50;99.90
46438;DHT22;32137;48.728;9.142;2023-04-25T03:58:47;7.50;99.90
46438;DHT22;32137;48.728;9.142;2023-04-25T04:01:12;7.50;99.90
46438;DHT22;32137;48.728;9.142;2023-04-25T04:03:38;7.40;99.90
46438;DHT22;32137;48.728;9.142;2023-04-25T04:06:03;7.50;99.90
46438;DHT22;32137;48.728;9.142;2023-04-25T04:08:29;7.40;99.90
46438;DHT22;32137;48.728;9.142;2023-04-25T04:10:57;7.40;99.90
46438;DHT22;32137;48.728;9.142;2023-04-25T04:13:22;7.50;99.90
46438;DHT22;32137;48.728;9.142;2023-04-25T04:15:48;7.60;99.90
46438;DHT22;32137;48.728;9.142;2023-04-25T04:18:13;7.60;99.90
46438;DHT22;32137;48.728;9.142;2023-04-25T04:20:39;7.40;99.90
46438;DHT22;32137;48.728;9.142;2023-04-25T04:23:04;7.40;99.90
46438;DHT22;32137;48.728;9.142;2023-04-25T04:25:30;7.30;99.90
46438;DHT22;32137;48.728;9.142;2023-04-25T04:27:56;7.50;99.90
46438;DHT22;32137;48.728;9.142;2023-04-25T04:30:22;7.40;99.90
46438;DHT22;32137;48.728;9.142;2023-04-25T04:32:50;7.40;99.90
46438;DHT22;32137;48.728;9.142;2023-04-25T04:35:15;7.30;99.90
46438;DHT22;32137;48.728;9.142;2023-04-25T04:37:40;7.30;99.90
46438;DHT22;32137;48.728;9.142;2023-04-25T04:40:06;7.30;99.90
46438;DHT22;32137;48.728;9.142;2023-04-25T04:42:32;7.10;99.90
46438;DHT22;32137;48.728;9.142;2023-04-25T04:44:58;7.20;99.90
46438;DHT22;32137;48.728;9.142;2023-04-25T04:47:24;7.10;99.90
46438;DHT22;32137;48.728;9.142;2023-04-25T04:49:50;7.10;99.90
46438;DHT22;32137;48.728;9.142;2023-04-25T04:52:16;7.20;99.90
46438;DHT22;32137;48.728;9.142;2023-04-25T04:54:41;7.30;99.90
46438;DHT22;32137;48.728;9.142;2023-04-25T04:57:07;7.30;99.90
46438;DHT22;32137;48.728;9.142;2023-04-25T04:59:32;7.30;99.90
46438;DHT22;32137;48.728;9.142;2023-04-25T05:01:58;7.40;99.90
46438;DHT22;32137;48.728;9.142;2023-04-25T05:04:23;7.40;99.90
46438;DHT22;32137;48.728;9.142;2023-04-25T05:06:49;7.40;99.90
46438;DHT22;32137;48.728;9.142;2023-04-25T05:09:14;7.50;99.90
46438;DHT22;32137;48.728;9.142;2023-04-25T05:11:40;7.60;99.90
46438;DHT22;32137;48.728;9.142;2023-04-25T05:14:05;7.70;99.90
46438;DHT22;32137;48.728;9.142;2023-04-25T05:16:31;7.70;99.90
46438;DHT22;32137;48.728;9.142;2023-04-25T05:18:56;7.70;99.90
46438;DHT22;32137;48.728;9.142;2023-04-25T05:21:22;7.70;99.90
46438;DHT22;32137;48.728;9.142;2023-04-25T05:23:47;7.70;99.90
46438;DHT22;32137;48.728;9.142;2023-04-25T05:26:13;7.70;99.90
46438;DHT22;32137;48.728;9.142;2023-04-25T05:28:41;7.90;99.90
46438;DHT22;32137;48.728;9.142;2023-04-25T05:31:07;7.70;99.90
46438;DHT22;32137;48.728;9.142;2023-04-25T05:33:32;7.80;99.90
46438;DHT22;32137;48.728;9.142;2023-04-25T05:35:58;7.90;99.90
46438;DHT22;32137;48.728;9.142;2023-04-25T05:38:23;8.00;99.90
46438;DHT22;32137;48.728;9.142;2023-04-25T05:40:49;7.90;99.90
46438;DHT22;32137;48.728;9.142;2023-04-25T05:43:14;8.00;99.90
46438;DHT22;32137;48.728;9.142;2023-04-25T05:45:40;8.00;99.90
46438;DHT22;32137;48.728;9.142;2023-04-25T05:48:06;8.10;99.90
46438;DHT22;32137;48.728;9.142;2023-04-25T05:50:31;8.20;99.90
46438;DHT22;32137;48.728;9.142;2023-04-25T05:52:56;8.20;99.90
46438;DHT22;32137;48.728;9.142;2023-04-25T05:55:22;8.10;99.90
46438;DHT22;32137;48.728;9.142;2023-04-25T05:57:47;8.10;99.90
46438;DHT22;32137;48.728;9.142;2023-04-25T06:00:13;8.20;99.90
46438;DHT22;32137;48.728;9.142;2023-04-25T06:02:40;8.10;99.90
46438;DHT22;32137;48.728;9.142;2023-04-25T06:05:06;8.20;99.90
46438;DHT22;32137;48.728;9.142;2023-04-25T06:07:31;8.10;99.90
46438;DHT22;32137;48.728;9.142;2023-04-25T06:09:57;8.10;99.90
46438;DHT22;32137;48.728;9.142;2023-04-25T06:12:22;8.00;99.90
46438;DHT22;32137;48.728;9.142;2023-04-25T06:14:48;7.90;99.90
46438;DHT22;32137;48.728;9.142;2023-04-25T06:17:13;8.00;99.90
46438;DHT22;32137;48.728;9.142;2023-04-25T06:19:39;8.00;99.90
46438;DHT22;32137;48.728;9.142;2023-04-25T06:22:04;8.00;99.90
46438;DHT22;32137;48.728;9.142;2023-04-25T06:24:30;8.10;99.90
46438;DHT22;32137;48.728;9.142;2023-04-25T06:26:55;8.10;99.90
46438;DHT22;32137;48.728;9.142;2023-04-25T06:29:21;8.00;99.90
46438;DHT22;32137;48.728;9.142;2023-04-25T06:31:46;8.00;99.90
46438;DHT22;32137;48.728;9.142;2023-04-25T06:34:12;8.10;99.90
46438;DHT22;32137;48.728;9.142;2023-04-25T06:36:37;8.00;99.90
46438;DHT22;32137;48.728;9.142;2023-04-25T06:39:03;8.10;99.90
46438;DHT22;32137;48.728;9.142;2023-04-25T06:41:28;8.10;99.90
46438;DHT22;32137;48.728;9.142;2023-04-25T06:43:54;8.20;99.90
46438;DHT22;32137;48.728;9.142;2023-04-25T06:46:19;8.20;99.90
46438;DHT22;32137;48.728;9.142;2023-04-25T06:48:45;8.10;99.90
46438;DHT22;32137;48.728;9.142;2023-04-25T06:51:10;8.10;99.90
46438;DHT22;32137;48.728;9.142;2023-04-25T06:53:36;8.10;99.90
46438;DHT22;32137;48.728;9.142;2023-04-25T06:56:01;8.20;99.90
46438;DHT22;32137;48.728;9.142;2023-04-25T06:58:27;8.20;99.90
46438;DHT22;32137;48.728;9.142;2023-04-25T07:00:52;8.10;99.90
46438;DHT22;32137;48.728;9.142;2023-04-25T07:03:18;8.20;99.90
46438;DHT22;32137;48.728;9.142;2023-04-25T07:05:43;8.10;99.90
46438;DHT22;32137;48.728;9.142;2023-04-25T07:08:10;8.10;99.90
46438;DHT22;32137;48.728;9.142;2023-04-25T07:10:36;8.10;99.90
46438;DHT22;32137;48.728;9.142;2023-04-25T07:13:01;8.20;99.90
46438;DHT22;32137;48.728;9.142;2023-04-25T07:15:27;8.20;99.90
46438;DHT22;32137;48.728;9.142;2023-04-25T07:17:52;8.10;99.90
46438;DHT22;32137;48.728;9.142;2023-04-25T07:20:18;8.20;99.90
46438;DHT22;32137;48.728;9.142;2023-04-25T07:22:43;8.10;99.90
46438;DHT22;32137;48.728;9.142;2023-04-25T07:25:09;8.20;99.90
46438;DHT22;32137;48.728;9.142;2023-04-25T07:27:34;8.10;99.90
46438;DHT22;32137;48.728;9.142;2023-04-25T07:30:00;8.10;99.90
46438;DHT22;32137;48.728;9.142;2023-04-25T07:32:25;8.10;99.90
46438;DHT22;32137;48.728;9.142;2023-04-25T07:34:51;8.20;99.90
46438;DHT22;32137;48.728;9.142;2023-04-25T07:37:17;8.10;99.90
46438;DHT22;32137;48.728;9.142;2023-04-25T07:39:44;8.10;99.90
46438;DHT22;32137;48.728;9.142;2023-04-25T07:42:11;8.20;99.90
46438;DHT22;32137;48.728;9.142;2023-04-25T07:44:36;8.20;99.90
46438;DHT22;32137;48.728;9.142;2023-04-25T07:47:07;8.20;99.90
46438;DHT22;32137;48.728;9.142;2023-04-25T07:49:33;8.20;99.90
46438;DHT22;32137;48.728;9.142;2023-04-25T07:51:59;8.10;99.90
46438;DHT22;32137;48.728;9.142;2023-04-25T07:54:25;8.00;99.90
46438;DHT22;32137;48.728;9.142;2023-04-25T07:56:51;8.10;99.90
46438;DHT22;32137;48.728;9.142;2023-04-25T07:59:16;8.10;99.90
46438;DHT22;32137;48.728;9.142;2023-04-25T08:01:42;8.10;99.90
46438;DHT22;32137;48.728;9.142;2023-04-25T08:04:07;8.10;99.90
46438;DHT22;32137;48.728;9.142;2023-04-25T08:06:33;8.20;99.90
46438;DHT22;32137;48.728;9.142;2023-04-25T08:08:58;8.30;99.90
46438;DHT22;32137;48.728;9.142;2023-04-25T08:11:24;8.30;99.90
46438;DHT22;32137;48.728;9.142;2023-04-25T08:13:50;8.20;99.90
46438;DHT22;32137;48.728;9.142;2023-04-25T08:16:15;8.30;99.90
46438;DHT22;32137;48.728;9.142;2023-04-25T08:18:41;8.60;99.90
46438;DHT22;32137;48.728;9.142;2023-04-25T08:21:07;8.60;99.90
46438;DHT22;32137;48.728;9.142;2023-04-25T08:23:34;8.60;99.90
46438;DHT22;32137;48.728;9.142;2023-04-25T08:25:59;8.70;99.90
46438;DHT22;32137;48.728;9.142;2023-04-25T08:28:25;8.60;99.90
46438;DHT22;32137;48.728;9.142;2023-04-25T08:30:50;8.30;99.90
46438;DHT22;32137;48.728;9.142;2023-04-25T08:33:16;8.30;99.90
46438;DHT22;32137;48.728;9.142;2023-04-25T08:35:42;8.40;99.90
46438;DHT22;32137;48.728;9.142;2023-04-25T08:38:07;8.70;99.90
46438;DHT22;32137;48.728;9.142;2023-04-25T08:40:34;8.30;99.90
46438;DHT22;32137;48.728;9.142;2023-04-25T08:43:00;8.40;99.90
46438;DHT22;32137;48.728;9.142;2023-04-25T08:45:28;8.40;99.90
46438;DHT22;32137;48.728;9.142;2023-04-25T08:47:56;8.40;99.90
46438;DHT22;32137;48.728;9.142;2023-04-25T08:50:22;8.70;99.90
46438;DHT22;32137;48.728;9.142;2023-04-25T08:52:48;8.80;99.90
46438;DHT22;32137;48.728;9.142;2023-04-25T08:55:17;8.80;99.90
46438;DHT22;32137;48.728;9.142;2023-04-25T08:57:43;8.50;99.90
46438;DHT22;32137;48.728;9.142;2023-04-25T09:00:10;8.90;99.90
46438;DHT22;32137;48.728;9.142;2023-04-25T09:02:36;8.90;99.90
46438;DHT22;32137;48.728;9.142;2023-04-25T09:05:02;8.40;99.90
46438;DHT22;32137;48.728;9.142;2023-04-25T09:07:29;8.40;99.90
46438;DHT22;32137;48.728;9.142;2023-04-25T09:09:55;8.50;99.90
46438;DHT22;32137;48.728;9.142;2023-04-25T09:12:21;8.30;99.90
46438;DHT22;32137;48.728;9.142;2023-04-25T09:17:27;8.80;99.90
46438;DHT22;32137;48.728;9.142;2023-04-25T09:19:53;8.60;99.90
46438;DHT22;32137;48.728;9.142;2023-04-25T09:22:19;8.60;99.90
46438;DHT22;32137;48.728;9.142;2023-04-25T09:24:47;8.60;99.90
46438;DHT22;32137;48.728;9.142;2023-04-25T09:27:18;8.30;99.90
46438;DHT22;32137;48.728;9.142;2023-04-25T09:29:44;8.70;99.90
46438;DHT22;32137;48.728;9.142;2023-04-25T09:34:42;9.10;99.90
46438;DHT22;32137;48.728;9.142;2023-04-25T09:37:10;9.20;99.90
46438;DHT22;32137;48.728;9.142;2023-04-25T09:39:37;9.20;99.90
46438;DHT22;32137;48.728;9.142;2023-04-25T09:42:03;8.80;99.90
46438;DHT22;32137;48.728;9.142;2023-04-25T09:44:28;8.70;99.90
46438;DHT22;32137;48.728;9.142;2023-04-25T09:46:54;9.00;99.90
46438;DHT22;32137;48.728;9.142;2023-04-25T09:49:19;9.20;99.90
46438;DHT22;32137;48.728;9.142;2023-04-25T09:51:55;8.90;99.90
46438;DHT22;32137;48.728;9.142;2023-04-25T09:54:21;9.10;99.90
46438;DHT22;32137;48.728;9.142;2023-04-25T09:56:46;9.10;99.90
46438;DHT22;32137;48.728;9.142;2023-04-25T09:59:13;8.50;99.90
46438;DHT22;32137;48.728;9.142;2023-04-25T10:01:39;8.50;99.90
46438;DHT22;32137;48.728;9.142;2023-04-25T10:04:05;8.60;99.90
46438;DHT22;32137;48.728;9.142;2023-04-25T10:06:31;8.90;99.90
46438;DHT22;32137;48.728;9.142;2023-04-25T10:08:59;8.90;99.90
46438;DHT22;32137;48.728;9.142;2023-04-25T10:11:24;8.50;99.90
46438;DHT22;32137;48.728;9.142;2023-04-25T10:13:51;8.70;99.90
46438;DHT22;32137;48.728;9.142;2023-04-25T10:16:17;8.60;99.90
46438;DHT22;32137;48.728;9.142;2023-04-25T10:18:43;8.90;99.90
46438;DHT22;32137;48.728;9.142;2023-04-25T10:21:08;8.50;99.90
46438;DHT22;32137;48.728;9.142;2023-04-25T10:23:35;8.90;99.90
46438;DHT22;32137;48.728;9.142;2023-04-25T10:26:02;8.90;99.90
46438;DHT22;32137;48.728;9.142;2023-04-25T10:28:27;8.40;99.90
46438;DHT22;32137;48.728;9.142;2023-04-25T10:31:03;9.10;99.90
46438;DHT22;32137;48.728;9.142;2023-04-25T10:33:30;9.20;99.90
46438;DHT22;32137;48.728;9.142;2023-04-25T10:35:57;9.30;99.90
46438;DHT22;32137;48.728;9.142;2023-04-25T10:38:23;8.60;99.90
46438;DHT22;32137;48.728;9.142;2023-04-25T10:41:05;8.50;99.90
46438;DHT22;32137;48.728;9.142;2023-04-25T10:45:56;8.60;99.90
46438;DHT22;32137;48.728;9.142;2023-04-25T10:48:28;8.40;99.90
46438;DHT22;32137;48.728;9.142;2023-04-25T10:51:07;8.90;99.90
46438;DHT22;32137;48.728;9.142;2023-04-25T10:53:33;8.90;99.90
46438;DHT22;32137;48.728;9.142;2023-04-25T10:55:59;8.80;99.90
46438;DHT22;32137;48.728;9.142;2023-04-25T10:58:24;8.50;99.90
46438;DHT22;32137;48.728;9.142;2023-04-25T11:00:50;8.60;99.90
46438;DHT22;32137;48.728;9.142;2023-04-25T11:03:16;8.50;99.90
46438;DHT22;32137;48.728;9.142;2023-04-25T11:05:41;8.50;99.90
46438;DHT22;32137;48.728;9.142;2023-04-25T11:08:12;8.60;99.90
46438;DHT22;32137;48.728;9.142;2023-04-25T11:10:39;8.90;99.90
46438;DHT22;32137;48.728;9.142;2023-04-25T11:13:05;9.00;99.90
46438;DHT22;32137;48.728;9.142;2023-04-25T11:15:30;9.00;99.90
46438;DHT22;32137;48.728;9.142;2023-04-25T11:17:56;8.90;99.90
46438;DHT22;32137;48.728;9.142;2023-04-25T11:20:22;8.80;99.90
46438;DHT22;32137;48.728;9.142;2023-04-25T11:22:47;8.50;99.90
46438;DHT22;32137;48.728;9.142;2023-04-25T11:25:14;8.50;99.90
46438;DHT22;32137;48.728;9.142;2023-04-25T11:27:49;8.80;99.90
46438;DHT22;32137;48.728;9.142;2023-04-25T11:30:15;8.50;99.90
46438;DHT22;32137;48.728;9.142;2023-04-25T11:32:41;8.80;99.90
46438;DHT22;32137;48.728;9.142;2023-04-25T11:35:07;9.10;99.90
46438;DHT22;32137;48.728;9.142;2023-04-25T11:37:33;9.30;99.90
46438;DHT22;32137;48.728;9.142;2023-04-25T11:39:59;8.90;99.90
46438;DHT22;32137;48.728;9.142;2023-04-25T11:42:25;9.00;99.90
46438;DHT22;32137;48.728;9.142;2023-04-25T11:44:50;9.10;99.90
46438;DHT22;32137;48.728;9.142;2023-04-25T11:47:16;9.10;99.90
46438;DHT22;32137;48.728;9.142;2023-04-25T11:49:42;9.00;99.90
46438;DHT22;32137;48.728;9.142;2023-04-25T11:52:07;9.10;99.90
46438;DHT22;32137;48.728;9.142;2023-04-25T11:54:36;9.60;99.90
46438;DHT22;32137;48.728;9.142;2023-04-25T11:57:02;9.30;99.90
46438;DHT22;32137;48.728;9.142;2023-04-25T11:59:28;9.30;99.90
46438;DHT22;32137;48.728;9.142;2023-04-25T12:01:53;9.90;99.90
46438;DHT22;32137;48.728;9.142;2023-04-25T12:04:23;9.90;99.90
46438;DHT22;32137;48.728;9.142;2023-04-25T12:06:49;9.40;99.90
46438;DHT22;32137;48.728;9.142;2023-04-25T12:09:17;9.80;99.90
46438;DHT22;32137;48.728;9.142;2023-04-25T12:11:47;9.30;99.90
46438;DHT22;32137;48.728;9.142;2023-04-25T12:14:23;9.50;99.90
46438;DHT22;32137;48.728;9.142;2023-04-25T12:16:56;9.50;99.90
46438;DHT22;32137;48.728;9.142;2023-04-25T12:19:22;9.20;99.90
46438;DHT22;32137;48.728;9.142;2023-04-25T12:21:49;9.70;99.90
46438;DHT22;32137;48.728;9.142;2023-04-25T12:24:18;9.40;99.90
46438;DHT22;32137;48.728;9.142;2023-04-25T12:26:48;9.60;99.90
46438;DHT22;32137;48.728;9.142;2023-04-25T12:29:17;9.70;99.90
46438;DHT22;32137;48.728;9.142;2023-04-25T12:31:43;9.30;99.90
46438;DHT22;32137;48.728;9.142;2023-04-25T12:34:09;9.90;99.90
46438;DHT22;32137;48.728;9.142;2023-04-25T12:36:34;9.90;99.90
46438;DHT22;32137;48.728;9.142;2023-04-25T12:39:00;9.70;99.90
46438;DHT22;32137;48.728;9.142;2023-04-25T12:41:29;9.70;99.90
46438;DHT22;32137;48.728;9.142;2023-04-25T12:43:55;9.90;99.90
46438;DHT22;32137;48.728;9.142;2023-04-25T12:46:20;9.60;99.90
46438;DHT22;32137;48.728;9.142;2023-04-25T12:48:46;9.50;99.90
46438;DHT22;32137;48.728;9.142;2023-04-25T12:51:11;9.60;99.90
46438;DHT22;32137;48.728;9.142;2023-04-25T12:53:37;10.10;99.90
46438;DHT22;32137;48.728;9.142;2023-04-25T12:58:57;9.80;99.90
46438;DHT22;32137;48.728;9.142;2023-04-25T13:01:23;9.80;99.90
46438;DHT22;32137;48.728;9.142;2023-04-25T13:03:49;9.80;99.90
46438;DHT22;32137;48.728;9.142;2023-04-25T13:06:15;10.20;99.90
46438;DHT22;32137;48.728;9.142;2023-04-25T13:08:40;10.00;99.90
46438;DHT22;32137;48.728;9.142;2023-04-25T13:11:07;10.80;99.90
46438;DHT22;32137;48.728;9.142;2023-04-25T13:13:32;10.50;99.90
46438;DHT22;32137;48.728;9.142;2023-04-25T13:16:02;10.40;99.90
46438;DHT22;32137;48.728;9.142;2023-04-25T13:18:28;10.50;99.90
46438;DHT22;32137;48.728;9.142;2023-04-25T13:20:54;10.60;99.90
46438;DHT22;32137;48.728;9.142;2023-04-25T13:23:20;10.50;99.90
46438;DHT22;32137;48.728;9.142;2023-04-25T13:25:46;10.50;99.90
46438;DHT22;32137;48.728;9.142;2023-04-25T13:28:11;11.20;99.90
46438;DHT22;32137;48.728;9.142;2023-04-25T13:30:37;11.70;99.90
46438;DHT22;32137;48.728;9.142;2023-04-25T13:33:02;11.80;99.90
46438;DHT22;32137;48.728;9.142;2023-04-25T13:35:29;11.80;99.90
46438;DHT22;32137;48.728;9.142;2023-04-25T13:37:54;12.00;99.90
46438;DHT22;32137;48.728;9.142;2023-04-25T13:40:20;11.70;99.90
46438;DHT22;32137;48.728;9.142;2023-04-25T13:42:46;11.90;99.90
46438;DHT22;32137;48.728;9.142;2023-04-25T13:45:11;12.10;99.90
46438;DHT22;32137;48.728;9.142;2023-04-25T13:47:37;11.40;99.90
46438;DHT22;32137;48.728;9.142;2023-04-25T13:50:03;11.00;99.90
46438;DHT22;32137;48.728;9.142;2023-04-25T13:52:29;10.90;99.90
46438;DHT22;32137;48.728;9.142;2023-04-25T13:54:54;10.50;99.90
46438;DHT22;32137;48.728;9.142;2023-04-25T13:57:20;10.90;99.90
46438;DHT22;32137;48.728;9.142;2023-04-25T13:59:46;11.00;99.90
46438;DHT22;32137;48.728;9.142;2023-04-25T14:02:12;10.60;99.90
46438;DHT22;32137;48.728;9.142;2023-04-25T14:04:37;10.40;99.90
46438;DHT22;32137;48.728;9.142;2023-04-25T14:07:03;10.90;99.90
46438;DHT22;32137;48.728;9.142;2023-04-25T14:09:28;11.00;99.90
46438;DHT22;32137;48.728;9.142;2023-04-25T14:11:54;11.40;99.90
46438;DHT22;32137;48.728;9.142;2023-04-25T14:14:20;11.10;99.90
46438;DHT22;32137;48.728;9.142;2023-04-25T14:16:46;11.80;99.90
46438;DHT22;32137;48.728;9.142;2023-04-25T14:19:16;11.60;99.90
46438;DHT22;32137;48.728;9.142;2023-04-25T14:21:42;11.50;99.90
46438;DHT22;32137;48.728;9.142;2023-04-25T14:24:08;12.10;99.90
46438;DHT22;32137;48.728;9.142;2023-04-25T14:26:33;12.20;99.90
46438;DHT22;32137;48.728;9.142;2023-04-25T14:28:59;12.10;99.90
46438;DHT22;32137;48.728;9.142;2023-04-25T14:31:25;11.60;99.90
46438;DHT22;32137;48.728;9.142;2023-04-25T14:33:50;11.70;99.90
46438;DHT22;32137;48.728;9.142;2023-04-25T14:36:16;12.30;99.90
46438;DHT22;32137;48.728;9.142;2023-04-25T14:38:41;12.50;99.90
46438;DHT22;32137;48.728;9.142;2023-04-25T14:41:07;12.40;99.90
46438;DHT22;32137;48.728;9.142;2023-04-25T14:43:32;12.10;99.90
46438;DHT22;32137;48.728;9.142;2023-04-25T14:45:58;12.30;99.90
46438;DHT22;32137;48.728;9.142;2023-04-25T14:48:23;12.00;99.90
46438;DHT22;32137;48.728;9.142;2023-04-25T14:50:49;12.30;99.90
46438;DHT22;32137;48.728;9.142;2023-04-25T14:53:15;11.90;99.90
46438;DHT22;32137;48.728;9.142;2023-04-25T14:55:40;11.50;99.90
46438;DHT22;32137;48.728;9.142;2023-04-25T14:58:06;11.90;99.90
46438;DHT22;32137;48.728;9.142;2023-04-25T15:00:32;12.00;99.90
46438;DHT22;32137;48.728;9.142;2023-04-25T15:02:58;11.80;99.90
46438;DHT22;32137;48.728;9.142;2023-04-25T15:05:24;11.90;99.90
46438;DHT22;32137;48.728;9.142;2023-04-25T15:07:49;11.80;99.90
46438;DHT22;32137;48.728;9.142;2023-04-25T15:10:16;11.90;99.90
46438;DHT22;32137;48.728;9.142;2023-04-25T15:12:42;11.90;99.90
46438;DHT22;32137;48.728;9.142;2023-04-25T15:15:08;11.60;99.90
46438;DHT22;32137;48.728;9.142;2023-04-25T15:17:37;11.70;99.90
46438;DHT22;32137;48.728;9.142;2023-04-25T15:20:03;12.00;99.90
46438;DHT22;32137;48.728;9.142;2023-04-25T15:22:30;12.00;99.90
46438;DHT22;32137;48.728;9.142;2023-04-25T15:24:56;11.90;99.90
46438;DHT22;32137;48.728;9.142;2023-04-25T15:27:22;12.30;99.90
46438;DHT22;32137;48.728;9.142;2023-04-25T15:29:48;12.20;99.90
46438;DHT22;32137;48.728;9.142;2023-04-25T15:32:13;11.70;99.90
46438;DHT22;32137;48.728;9.142;2023-04-25T15:34:39;12.00;99.90
46438;DHT22;32137;48.728;9.142;2023-04-25T15:37:05;12.10;99.90
46438;DHT22;32137;48.728;9.142;2023-04-25T15:39:30;11.70;99.90
46438;DHT22;32137;48.728;9.142;2023-04-25T15:41:55;12.00;99.90
46438;DHT22;32137;48.728;9.142;2023-04-25T15:44:22;12.00;99.90
46438;DHT22;32137;48.728;9.142;2023-04-25T15:46:47;11.60;99.90